Time;durP1;ratioP1;P1;durP2;ratioP2;P2;SDS_P1;SDS_P2;PMS_P1;PMS_P2;Temp;Humidity;BMP_temperature;BMP_pressure;BME280_temperature;BME280_humidity;BME280_pressure;Samples;Min_cycle;Max_cycle;Signal;HPM_P1;HPM_P2
2022/04/08 00:01:22;;;;;;;22.83;21.30;;;10.80;63.00;;;;;;5091923;28;20196;-74
2022/04/08 00:03:49;;;;;;;23.17;21.70;;;10.60;62.70;;;;;;5092132;28;20736;-74
2022/04/08 00:06:16;;;;;;;23.50;22.00;;;10.50;63.00;;;;;;5092219;28;20524;-74
2022/04/08 00:08:44;;;;;;;23.40;21.80;;;10.50;63.20;;;;;;5091710;28;20454;-74
2022/04/08 00:11:11;;;;;;;24.47;22.80;;;10.60;63.30;;;;;;5091723;28;20453;-74
2022/04/08 00:13:38;;;;;;;23.20;21.77;;;10.70;63.10;;;;;;5091862;28;20474;-74
2022/04/08 00:16:08;;;;;;;23.70;22.17;;;10.70;63.00;;;;;;5091944;28;20485;-74
2022/04/08 00:18:35;;;;;;;24.33;22.50;;;10.60;63.10;;;;;;5092108;28;20457;-74
2022/04/08 00:21:03;;;;;;;22.77;21.17;;;10.60;63.00;;;;;;5091706;28;20484;-74
2022/04/08 00:23:31;;;;;;;22.67;21.27;;;10.60;63.20;;;;;;5092118;28;20484;-74
2022/04/08 00:25:58;;;;;;;24.50;22.50;;;10.50;62.90;;;;;;5092052;28;20278;-74
2022/04/08 00:28:24;;;;;;;23.77;22.20;;;10.40;62.70;;;;;;5092127;28;20192;-74
2022/04/08 00:30:51;;;;;;;23.30;22.00;;;10.50;62.70;;;;;;5091305;28;20947;-74
2022/04/08 00:33:19;;;;;;;22.80;21.30;;;10.60;62.50;;;;;;5091987;28;20488;-74
2022/04/08 00:35:46;;;;;;;23.67;21.92;;;10.60;61.90;;;;;;5091868;28;20219;-74
2022/04/08 00:38:13;;;;;;;23.40;22.07;;;10.50;61.50;;;;;;5091936;28;20215;-74
2022/04/08 00:40:40;;;;;;;23.23;21.83;;;10.50;61.80;;;;;;5091579;28;20457;-74
2022/04/08 00:43:14;;;;;;;23.83;22.43;;;10.50;61.70;;;;;;5091861;28;20561;-74
2022/04/08 00:45:41;;;;;;;23.98;22.35;;;10.50;62.00;;;;;;5091707;28;20861;-74
2022/04/08 00:48:09;;;;;;;22.77;21.57;;;10.50;62.10;;;;;;5091665;28;20203;-74
2022/04/08 00:50:38;;;;;;;23.80;22.30;;;10.50;62.30;;;;;;5091312;28;20982;-74
2022/04/08 00:53:06;;;;;;;25.45;23.52;;;10.50;62.50;;;;;;5091522;28;20236;-74
2022/04/08 00:55:34;;;;;;;23.77;22.40;;;10.50;62.60;;;;;;5091766;28;20588;-74
2022/04/08 00:58:02;;;;;;;24.30;22.77;;;10.50;63.00;;;;;;5091643;28;20505;-74
2022/04/08 01:00:33;;;;;;;23.67;22.30;;;10.70;63.10;;;;;;5091372;28;20200;-74
2022/04/08 01:03:00;;;;;;;23.60;22.08;;;10.60;62.90;;;;;;5091698;28;20219;-74
2022/04/08 01:05:27;;;;;;;24.88;22.95;;;10.60;62.80;;;;;;5091778;28;20278;-74
2022/04/08 01:07:55;;;;;;;22.77;21.47;;;10.50;63.10;;;;;;5094607;28;20731;-74
2022/04/08 01:10:23;;;;;;;23.13;21.80;;;10.50;63.30;;;;;;5094855;28;20806;-73
2022/04/08 01:12:50;;;;;;;23.13;21.77;;;10.40;63.10;;;;;;5095391;28;20223;-74
2022/04/08 01:15:18;;;;;;;23.65;22.25;;;10.30;63.30;;;;;;5095317;28;20215;-74
2022/04/08 01:17:45;;;;;;;23.33;21.75;;;10.20;63.70;;;;;;5095569;28;20196;-74
2022/04/08 01:20:13;;;;;;;23.77;22.05;;;10.30;64.00;;;;;;5095081;28;20210;-74
2022/04/08 01:22:40;;;;;;;23.83;21.98;;;10.30;63.60;;;;;;5095484;28;20226;-74
2022/04/08 01:25:11;;;;;;;24.35;22.55;;;10.30;63.20;;;;;;5095042;28;20245;-74
2022/04/08 01:27:38;;;;;;;24.10;22.08;;;10.30;63.60;;;;;;5095167;28;20231;-74
2022/04/08 01:30:08;;;;;;;24.73;23.10;;;10.40;63.30;;;;;;5094346;28;20209;-74
2022/04/08 01:32:35;;;;;;;24.38;22.45;;;10.40;63.10;;;;;;5095029;28;20296;-74
2022/04/08 01:35:02;;;;;;;23.58;22.15;;;10.30;62.80;;;;;;5094784;28;20200;-74
2022/04/08 01:37:29;;;;;;;23.52;22.08;;;10.30;63.10;;;;;;5094717;28;20200;-74
2022/04/08 01:39:56;;;;;;;23.20;21.70;;;10.40;62.60;;;;;;5094129;28;20200;-74
2022/04/08 01:42:24;;;;;;;23.15;21.85;;;10.40;62.70;;;;;;5094679;28;20580;-74
2022/04/08 01:44:52;;;;;;;23.83;22.25;;;10.40;62.80;;;;;;5094767;28;20228;-74
2022/04/08 01:47:19;;;;;;;23.10;21.70;;;10.30;62.90;;;;;;5094420;28;20203;-73
2022/04/08 01:49:46;;;;;;;23.63;22.00;;;10.20;63.30;;;;;;5094032;28;20195;-74
2022/04/08 01:52:13;;;;;;;23.17;21.70;;;10.20;63.60;;;;;;5094501;28;20199;-74
2022/04/08 01:54:40;;;;;;;23.57;21.87;;;10.20;63.40;;;;;;5101682;22;20223;-74
2022/04/08 01:57:07;;;;;;;22.75;21.27;;;10.20;63.60;;;;;;5094575;28;20556;-74
2022/04/08 01:59:36;;;;;;;22.73;21.25;;;10.20;64.00;;;;;;5093729;28;20274;-74
2022/04/08 02:02:03;;;;;;;22.48;21.17;;;10.20;64.00;;;;;;5094567;28;20196;-74
2022/04/08 02:04:30;;;;;;;23.10;21.65;;;10.10;64.20;;;;;;5094287;28;20203;-74
2022/04/08 02:06:57;;;;;;;22.58;21.27;;;10.10;64.00;;;;;;5093918;28;20235;-74
2022/04/08 02:09:24;;;;;;;22.30;20.92;;;10.00;63.80;;;;;;5093900;28;20199;-74
2022/04/08 02:11:51;;;;;;;23.77;22.30;;;10.00;64.40;;;;;;5094159;28;20200;-74
2022/04/08 02:14:18;;;;;;;23.67;22.05;;;9.90;64.50;;;;;;5094100;28;20696;-74
2022/04/08 02:16:46;;;;;;;22.30;21.00;;;9.90;64.40;;;;;;5094133;28;20226;-74
2022/04/08 02:19:13;;;;;;;22.45;21.15;;;9.90;63.60;;;;;;5092403;28;20195;-74
2022/04/08 02:21:40;;;;;;;23.15;21.83;;;9.80;64.20;;;;;;5093995;28;20286;-74
2022/04/08 02:24:08;;;;;;;25.00;23.27;;;9.80;64.30;;;;;;5093922;28;20531;-74
2022/04/08 02:26:35;;;;;;;23.60;22.00;;;9.90;63.80;;;;;;5093854;28;20459;-74
2022/04/08 02:29:02;;;;;;;23.48;22.00;;;9.90;63.60;;;;;;5093735;28;20302;-74
2022/04/08 02:31:29;;;;;;;23.60;21.95;;;9.90;63.80;;;;;;5093631;28;20207;-74
2022/04/08 02:33:57;;;;;;;24.52;22.95;;;9.90;63.90;;;;;;5093625;28;20218;-74
2022/04/08 02:36:24;;;;;;;25.15;23.00;;;9.90;63.80;;;;;;5093745;28;20610;-74
2022/04/08 02:38:51;;;;;;;22.75;21.35;;;10.00;63.70;;;;;;5093587;28;20737;-74
2022/04/08 02:41:17;;;;;;;23.60;22.10;;;9.80;63.80;;;;;;5093256;28;20286;-74
2022/04/08 02:43:44;;;;;;;23.30;21.90;;;9.90;64.20;;;;;;5093536;28;20615;-74
2022/04/08 02:46:13;;;;;;;24.65;22.95;;;9.90;64.30;;;;;;5093442;28;20289;-74
2022/04/08 02:48:40;;;;;;;23.00;21.70;;;9.90;64.50;;;;;;5093421;28;20286;-74
2022/04/08 02:51:08;;;;;;;23.42;21.90;;;9.90;64.90;;;;;;5093009;28;20204;-74
2022/04/08 02:53:35;;;;;;;23.65;22.33;;;9.90;64.80;;;;;;5094502;28;20285;-74
2022/04/08 02:56:02;;;;;;;23.80;22.38;;;9.90;64.70;;;;;;5094605;28;20226;-73
2022/04/08 02:58:29;;;;;;;23.85;22.35;;;9.90;64.60;;;;;;5094249;28;20203;-74
2022/04/08 03:00:59;;;;;;;24.55;22.98;;;9.90;64.60;;;;;;5093384;28;20615;-73
2022/04/08 03:03:27;;;;;;;23.80;22.30;;;9.80;64.70;;;;;;5093419;28;20226;-74
2022/04/08 03:05:54;;;;;;;23.40;21.88;;;9.80;64.80;;;;;;5093187;28;20191;-74
2022/04/08 03:08:22;;;;;;;24.42;22.70;;;9.90;65.00;;;;;;5092724;28;20195;-74
2022/04/08 03:10:50;;;;;;;25.80;23.90;;;9.90;64.90;;;;;;5092565;28;20194;-74
2022/04/08 03:13:17;;;;;;;24.27;22.73;;;9.90;64.80;;;;;;5092870;28;20295;-74
2022/04/08 03:15:44;;;;;;;23.58;22.08;;;9.90;65.00;;;;;;5092790;28;20310;-74
2022/04/08 03:18:10;;;;;;;23.83;22.05;;;9.90;65.60;;;;;;5092958;28;20203;-74
2022/04/08 03:20:37;;;;;;;23.63;22.00;;;9.90;65.50;;;;;;5092770;28;20226;-74
2022/04/08 03:23:05;;;;;;;23.75;22.23;;;9.90;64.70;;;;;;5092995;28;20245;-74
2022/04/08 03:25:34;;;;;;;23.05;21.58;;;9.90;64.50;;;;;;5092998;28;20199;-74
2022/04/08 03:28:01;;;;;;;24.48;22.58;;;9.90;64.10;;;;;;5092679;28;20697;-74
2022/04/08 03:30:28;;;;;;;23.05;21.35;;;9.90;64.00;;;;;;5092011;28;20199;-74
2022/04/08 03:32:55;;;;;;;24.63;22.83;;;9.90;63.60;;;;;;5092696;28;20653;-74
2022/04/08 03:35:22;;;;;;;23.50;21.83;;;9.90;63.20;;;;;;5093024;28;20206;-74
2022/04/08 03:37:49;;;;;;;23.27;21.70;;;9.90;63.00;;;;;;5092539;28;20674;-74
2022/04/08 03:40:16;;;;;;;23.67;22.05;;;9.80;62.80;;;;;;5092053;28;20196;-74
2022/04/08 03:42:44;;;;;;;25.20;23.27;;;9.70;63.40;;;;;;5092470;28;20311;-74
2022/04/08 03:45:13;;;;;;;25.45;23.88;;;9.70;64.60;;;;;;5092723;28;20573;-74
2022/04/08 03:47:39;;;;;;;23.33;21.60;;;9.70;63.40;;;;;;5092470;28;20211;-74
2022/04/08 03:50:08;;;;;;;22.90;21.50;;;9.80;63.40;;;;;;5092013;28;20205;-74
2022/04/08 03:52:34;;;;;;;23.95;22.40;;;9.70;63.30;;;;;;5092495;28;20247;-74
2022/04/08 03:55:02;;;;;;;23.38;21.77;;;9.90;62.80;;;;;;5092270;28;20680;-74
2022/04/08 03:57:29;;;;;;;23.05;21.80;;;9.80;63.00;;;;;;5092380;28;20302;-74
2022/04/08 03:59:58;;;;;;;26.20;24.60;;;9.70;63.10;;;;;;5091926;28;20287;-74
2022/04/08 04:02:25;;;;;;;27.33;25.73;;;9.70;62.10;;;;;;5092535;28;20222;-74
2022/04/08 04:04:55;;;;;;;24.55;22.85;;;9.70;62.70;;;;;;5092362;28;20206;-74
2022/04/08 04:07:22;;;;;;;23.90;22.40;;;9.70;62.80;;;;;;5092008;28;20290;-74
2022/04/08 04:09:49;;;;;;;24.60;22.98;;;9.70;63.00;;;;;;5091809;28;20254;-74
2022/04/08 04:12:15;;;;;;;27.15;24.27;;;9.70;63.00;;;;;;5091938;28;20198;-74
2022/04/08 04:14:43;;;;;;;24.50;22.98;;;9.70;62.70;;;;;;5092298;28;20287;-74
2022/04/08 04:17:11;;;;;;;23.90;22.08;;;9.70;62.40;;;;;;5092216;28;20263;-74
2022/04/08 04:19:38;;;;;;;24.02;22.35;;;9.70;62.40;;;;;;5091528;28;20199;-74
2022/04/08 04:22:05;;;;;;;24.00;22.20;;;9.70;62.50;;;;;;5091879;28;20203;-74
2022/04/08 04:24:32;;;;;;;24.38;22.55;;;9.70;62.60;;;;;;5091974;28;20195;-74
2022/04/08 04:26:59;;;;;;;25.33;23.63;;;9.70;62.30;;;;;;5092071;28;20198;-74
2022/04/08 04:29:26;;;;;;;23.75;22.25;;;9.70;61.90;;;;;;5091692;28;20282;-74
2022/04/08 04:31:55;;;;;;;23.20;21.75;;;9.60;62.00;;;;;;5092154;28;20582;-74
2022/04/08 04:34:24;;;;;;;25.45;23.55;;;9.60;62.30;;;;;;5092143;28;20219;-74
2022/04/08 04:36:51;;;;;;;23.50;21.95;;;9.60;62.60;;;;;;5091820;28;20659;-74
2022/04/08 04:39:18;;;;;;;26.60;24.80;;;9.50;62.50;;;;;;5091450;28;20203;-74
2022/04/08 04:41:45;;;;;;;24.80;23.17;;;9.50;63.10;;;;;;5093743;28;20712;-74
2022/04/08 04:44:12;;;;;;;23.88;22.15;;;9.50;62.40;;;;;;5096293;28;20629;-74
2022/04/08 04:46:39;;;;;;;24.67;22.45;;;9.50;62.70;;;;;;5096013;28;20190;-74
2022/04/08 04:49:06;;;;;;;23.35;21.65;;;9.40;63.40;;;;;;5095790;28;20188;-74
2022/04/08 04:51:34;;;;;;;24.00;22.60;;;9.40;63.50;;;;;;5095557;28;20206;-74
2022/04/08 04:54:01;;;;;;;24.67;22.95;;;9.40;63.50;;;;;;5095865;28;20314;-74
2022/04/08 04:56:28;;;;;;;25.02;23.20;;;9.50;63.50;;;;;;5095803;28;20219;-74
2022/04/08 04:58:55;;;;;;;24.33;22.75;;;9.60;63.60;;;;;;5095745;28;20204;-74
2022/04/08 05:01:22;;;;;;;24.88;23.38;;;9.50;63.70;;;;;;5095299;28;20192;-74
2022/04/08 05:03:49;;;;;;;24.75;22.90;;;9.50;63.70;;;;;;5095642;28;20303;-74
2022/04/08 05:06:16;;;;;;;24.37;22.80;;;9.50;64.00;;;;;;5095808;28;20599;-74
2022/04/08 05:08:44;;;;;;;25.23;23.17;;;9.50;64.00;;;;;;5095201;28;20500;-74
2022/04/08 05:11:11;;;;;;;24.05;22.55;;;9.50;64.60;;;;;;5095237;28;20195;-74
2022/04/08 05:13:38;;;;;;;24.80;23.20;;;9.50;64.70;;;;;;5095217;28;20302;-74
2022/04/08 05:16:06;;;;;;;26.33;24.35;;;9.60;64.20;;;;;;5095424;28;20244;-74
2022/04/08 05:18:33;;;;;;;24.92;23.42;;;9.60;64.10;;;;;;5095127;28;20205;-74
2022/04/08 05:21:00;;;;;;;24.73;22.80;;;9.50;64.40;;;;;;5095120;28;20206;-74
2022/04/08 05:23:29;;;;;;;24.35;22.85;;;9.60;64.20;;;;;;5095271;28;20216;-74
2022/04/08 05:25:57;;;;;;;25.27;23.60;;;9.60;64.60;;;;;;5095519;28;20225;-74
2022/04/08 05:28:25;;;;;;;24.08;22.45;;;9.70;63.60;;;;;;5095391;28;20199;-74
2022/04/08 05:30:52;;;;;;;25.65;23.80;;;9.70;63.60;;;;;;5094621;28;20203;-74
2022/04/08 05:33:19;;;;;;;24.42;22.65;;;9.70;63.60;;;;;;5095125;28;20647;-74
2022/04/08 05:35:46;;;;;;;23.40;22.00;;;9.70;63.80;;;;;;5095278;28;20204;-73
2022/04/08 05:38:13;;;;;;;24.35;22.85;;;9.70;64.30;;;;;;5095018;28;20223;-74
2022/04/08 05:40:41;;;;;;;24.42;23.02;;;9.70;66.90;;;;;;5094774;28;20209;-74
2022/04/08 05:43:10;;;;;;;23.80;22.42;;;9.70;65.40;;;;;;5095032;28;20225;-74
2022/04/08 05:45:37;;;;;;;23.88;22.17;;;9.80;64.70;;;;;;5095351;28;20282;-74
2022/04/08 05:48:05;;;;;;;24.95;23.10;;;9.90;64.00;;;;;;5095640;28;20557;-74
2022/04/08 05:50:33;;;;;;;23.77;22.37;;;9.90;64.60;;;;;;5094635;28;20724;-74
2022/04/08 05:53:00;;;;;;;24.20;22.50;;;9.90;70.50;;;;;;5095158;28;20507;-74
2022/04/08 05:55:27;;;;;;;23.77;22.50;;;9.90;66.50;;;;;;5094834;28;20544;-74
2022/04/08 05:57:56;;;;;;;25.33;23.50;;;9.90;65.30;;;;;;5094438;28;20484;-74
2022/04/08 06:00:29;;;;;;;24.42;23.00;;;9.90;65.10;;;;;;5094040;28;20446;-74
2022/04/08 06:02:57;;;;;;;26.20;24.60;;;9.90;65.70;;;;;;5094557;28;20276;-74
2022/04/08 06:05:24;;;;;;;24.33;22.70;;;10.00;66.10;;;;;;5094562;28;20192;-74
2022/04/08 06:07:53;;;;;;;23.53;22.23;;;10.00;66.70;;;;;;5094046;28;20458;-74
2022/04/08 06:10:22;;;;;;;24.37;22.70;;;10.20;65.40;;;;;;5093970;28;20775;-74
2022/04/08 06:12:49;;;;;;;24.60;22.93;;;10.30;64.70;;;;;;5094115;28;20469;-74
2022/04/08 06:15:17;;;;;;;26.53;24.57;;;10.30;64.50;;;;;;5094495;28;20548;-74
2022/04/08 06:17:46;;;;;;;24.63;23.13;;;10.10;66.30;;;;;;5094216;28;20507;-74
2022/04/08 06:20:16;;;;;;;23.20;21.70;;;10.20;71.30;;;;;;5093848;28;20539;-74
2022/04/08 06:22:43;;;;;;;25.00;23.60;;;10.20;68.30;;;;;;5094451;28;20221;-74
2022/04/08 06:25:11;;;;;;;23.95;22.60;;;10.30;68.50;;;;;;5094104;28;20208;-74
2022/04/08 06:27:38;;;;;;;25.15;23.70;;;10.30;70.20;;;;;;5094114;28;20282;-74
2022/04/08 06:30:10;;;;;;;23.50;22.15;;;10.20;69.30;;;;;;5093781;28;20533;-74
2022/04/08 06:32:38;;;;;;;24.25;22.70;;;10.20;69.70;;;;;;5094366;28;20220;-74
2022/04/08 06:35:07;;;;;;;25.77;24.17;;;10.20;70.70;;;;;;5093991;28;20199;-74
2022/04/08 06:37:34;;;;;;;26.13;24.27;;;10.20;70.70;;;;;;5093723;28;20477;-74
2022/04/08 06:40:04;;;;;;;24.40;23.00;;;10.20;71.20;;;;;;5093183;28;20456;-74
2022/04/08 06:42:31;;;;;;;23.30;22.00;;;10.20;72.70;;;;;;5100891;22;21037;-74
2022/04/08 06:44:58;;;;;;;24.97;23.57;;;10.30;72.80;;;;;;5093631;28;20478;-74
2022/04/08 06:47:25;;;;;;;24.77;23.27;;;10.30;72.50;;;;;;5093768;28;20548;-74
2022/04/08 06:49:52;;;;;;;23.50;22.20;;;10.30;72.90;;;;;;5092809;28;20489;-74
2022/04/08 06:52:20;;;;;;;25.93;24.17;;;10.40;72.50;;;;;;5093393;28;20481;-74
2022/04/08 06:54:47;;;;;;;26.55;24.85;;;10.50;72.40;;;;;;5093407;28;20453;-74
2022/04/08 06:57:14;;;;;;;24.50;23.10;;;10.30;73.80;;;;;;5093149;28;20624;-74
2022/04/08 06:59:42;;;;;;;26.10;24.80;;;10.20;73.70;;;;;;5092631;28;21009;-74
2022/04/08 07:02:09;;;;;;;23.95;22.55;;;10.40;74.10;;;;;;5093315;28;20199;-74
2022/04/08 07:04:36;;;;;;;23.53;22.23;;;10.40;73.50;;;;;;5092693;28;20660;-74
2022/04/08 07:07:05;;;;;;;24.13;22.73;;;10.30;74.10;;;;;;5092904;28;20449;-74
2022/04/08 07:09:34;;;;;;;25.65;24.23;;;10.20;74.30;;;;;;5092862;28;20735;-74
2022/04/08 07:12:01;;;;;;;27.08;25.58;;;10.10;74.40;;;;;;5092739;28;20192;-74
2022/04/08 07:14:28;;;;;;;24.45;22.92;;;9.90;75.90;;;;;;5093479;28;20212;-74
2022/04/08 07:16:55;;;;;;;25.38;23.80;;;10.00;76.10;;;;;;5093365;28;20707;-74
2022/04/08 07:19:22;;;;;;;25.70;23.90;;;9.90;75.90;;;;;;5092898;28;20629;-74
2022/04/08 07:21:49;;;;;;;23.75;22.35;;;9.90;76.10;;;;;;5093412;28;20299;-74
2022/04/08 07:24:16;;;;;;;23.20;22.00;;;9.90;76.70;;;;;;5093114;28;20311;-74
2022/04/08 07:26:44;;;;;;;24.42;22.92;;;9.80;77.40;;;;;;5092929;28;20514;-74
2022/04/08 07:29:11;;;;;;;25.52;23.83;;;9.80;77.90;;;;;;5092326;28;20200;-74
2022/04/08 07:31:38;;;;;;;25.30;23.83;;;9.80;78.10;;;;;;5092577;28;20196;-74
2022/04/08 07:34:05;;;;;;;24.20;22.70;;;9.60;79.60;;;;;;5092730;28;20312;-74
2022/04/08 07:36:32;;;;;;;23.10;21.65;;;9.70;79.60;;;;;;5092685;28;20231;-74
2022/04/08 07:38:59;;;;;;;23.73;22.42;;;9.70;79.00;;;;;;5092752;28;20307;-74
2022/04/08 07:41:26;;;;;;;23.20;21.90;;;9.80;78.60;;;;;;5092245;28;20207;-74
2022/04/08 07:43:55;;;;;;;23.95;22.55;;;9.80;78.40;;;;;;5092624;28;20216;-74
2022/04/08 07:46:22;;;;;;;23.60;22.30;;;9.80;78.90;;;;;;5092573;28;20208;-74
2022/04/08 07:48:49;;;;;;;22.85;21.45;;;9.90;78.60;;;;;;5092544;28;20207;-74
2022/04/08 07:51:16;;;;;;;24.50;23.10;;;10.10;78.20;;;;;;5092035;28;20204;-74
2022/04/08 07:53:43;;;;;;;24.63;23.13;;;10.20;78.00;;;;;;5092320;28;20260;-74
2022/04/08 07:56:10;;;;;;;26.13;24.63;;;10.20;77.60;;;;;;5092520;28;20457;-74
2022/04/08 07:58:37;;;;;;;27.50;25.90;;;10.30;77.00;;;;;;5092146;28;20561;-74
2022/04/08 08:01:05;;;;;;;26.33;24.53;;;10.40;77.90;;;;;;5091896;28;20878;-74
2022/04/08 08:03:34;;;;;;;25.23;23.80;;;10.40;79.30;;;;;;5092254;28;20465;-74
2022/04/08 08:06:03;;;;;;;24.50;23.10;;;10.50;78.10;;;;;;5092286;28;20896;-74
2022/04/08 08:08:30;;;;;;;25.97;24.27;;;10.70;76.00;;;;;;5091878;28;20916;-74
2022/04/08 08:10:57;;;;;;;25.60;23.73;;;10.60;76.00;;;;;;5091750;28;20946;-74
2022/04/08 08:13:24;;;;;;;24.37;22.87;;;10.80;76.00;;;;;;5091869;28;20989;-74
2022/04/08 08:15:51;;;;;;;26.20;24.50;;;11.00;76.30;;;;;;5092309;28;20826;-74
2022/04/08 08:18:21;;;;;;;25.80;24.30;;;11.20;75.30;;;;;;5096302;28;20477;-74
2022/04/08 08:20:49;;;;;;;27.17;25.87;;;11.20;74.70;;;;;;5095990;28;20894;-74
2022/04/08 08:23:16;;;;;;;24.90;23.50;;;11.30;74.50;;;;;;5096370;28;20476;-74
2022/04/08 08:25:44;;;;;;;26.00;24.50;;;11.30;73.70;;;;;;5096322;28;20453;-74
2022/04/08 08:28:11;;;;;;;24.23;22.87;;;11.40;74.30;;;;;;5096257;28;20515;-74
2022/04/08 08:30:39;;;;;;;26.20;24.50;;;11.40;74.70;;;;;;5095581;28;20545;-74
2022/04/08 08:33:06;;;;;;;25.73;24.20;;;11.60;75.00;;;;;;5096187;28;20465;-74
2022/04/08 08:35:35;;;;;;;26.07;24.33;;;11.60;74.00;;;;;;5096054;28;20519;-74
2022/04/08 08:38:02;;;;;;;25.17;23.77;;;11.70;74.80;;;;;;5095915;28;20480;-74
2022/04/08 08:40:32;;;;;;;24.93;23.53;;;11.70;74.30;;;;;;5095484;28;20510;-74
2022/04/08 08:43:00;;;;;;;25.20;23.80;;;11.70;74.20;;;;;;5095979;28;20488;-74
2022/04/08 08:45:32;;;;;;;27.17;25.57;;;11.80;73.20;;;;;;5095979;28;20445;-74
2022/04/08 08:48:01;;;;;;;24.00;22.70;;;11.80;73.80;;;;;;5095862;28;20469;-74
2022/04/08 08:50:28;;;;;;;25.40;23.90;;;11.70;73.50;;;;;;5095352;28;20453;-74
2022/04/08 08:52:57;;;;;;;24.60;23.20;;;11.70;74.40;;;;;;5095657;28;20539;-74
2022/04/08 08:55:25;;;;;;;26.80;25.50;;;11.90;73.40;;;;;;5095808;28;20870;-74
2022/04/08 08:57:52;;;;;;;25.17;23.77;;;12.00;73.50;;;;;;5095650;28;20567;-74
2022/04/08 09:00:23;;;;;;;24.90;23.60;;;11.80;74.40;;;;;;5094995;28;20886;-74
2022/04/08 09:02:50;;;;;;;26.73;25.23;;;11.80;74.30;;;;;;5095584;28;20989;-74
2022/04/08 09:05:19;;;;;;;25.67;23.97;;;11.70;74.60;;;;;;5095575;28;20450;-74
2022/04/08 09:07:55;;;;;;;25.50;24.00;;;11.70;74.10;;;;;;5094950;28;20511;-74
2022/04/08 09:10:27;;;;;;;27.10;25.47;;;11.70;74.20;;;;;;5094904;28;20487;-74
2022/04/08 09:12:55;;;;;;;26.60;24.80;;;11.80;74.20;;;;;;5095207;28;20480;-74
2022/04/08 09:15:23;;;;;;;25.30;23.80;;;11.80;74.40;;;;;;5095385;28;20471;-74
2022/04/08 09:17:51;;;;;;;25.60;24.20;;;11.80;74.80;;;;;;5095184;28;20815;-75
2022/04/08 09:20:19;;;;;;;26.50;25.10;;;11.80;75.10;;;;;;5094598;28;20449;-74
2022/04/08 09:22:55;;;;;;;23.90;22.50;;;11.70;74.90;;;;;;5095194;28;20473;-74
2022/04/08 09:25:27;;;;;;;25.20;23.90;;;11.70;75.30;;;;;;5095438;28;20454;-75
2022/04/08 09:27:57;;;;;;;25.27;23.57;;;11.70;75.30;;;;;;5094703;28;20449;-74
2022/04/08 09:30:25;;;;;;;25.37;23.67;;;11.60;74.90;;;;;;5094483;28;20504;-75
2022/04/08 09:32:54;;;;;;;26.07;24.67;;;11.70;74.80;;;;;;5095088;28;20470;-74
2022/04/08 09:35:23;;;;;;;26.33;25.13;;;11.60;75.10;;;;;;5095129;28;20457;-74
2022/04/08 09:38:01;;;;;;;26.47;25.07;;;11.50;76.20;;;;;;5094871;28;20554;-75
2022/04/08 09:40:37;;;;;;;26.63;25.13;;;11.40;75.40;;;;;;5094614;28;20461;-74
2022/04/08 09:43:04;;;;;;;27.93;26.53;;;11.40;75.40;;;;;;5095171;28;20580;-74
2022/04/08 09:45:32;;;;;;;25.20;23.80;;;11.40;77.50;;;;;;5094863;28;20445;-74
2022/04/08 09:47:59;;;;;;;26.33;24.83;;;11.20;76.90;;;;;;5094842;28;20452;-74
2022/04/08 09:50:26;;;;;;;25.67;24.27;;;11.20;76.20;;;;;;5094210;28;20449;-74
2022/04/08 09:52:54;;;;;;;25.50;24.20;;;11.10;75.40;;;;;;5094807;28;20484;-74
2022/04/08 09:55:23;;;;;;;25.80;24.40;;;10.90;77.80;;;;;;5094460;28;20449;-74
2022/04/08 09:57:56;;;;;;;25.93;24.50;;;10.90;78.80;;;;;;5094461;28;20474;-74
2022/04/08 10:00:24;;;;;;;25.20;23.80;;;10.90;79.60;;;;;;5094161;28;20556;-74
2022/04/08 10:02:54;;;;;;;25.00;23.70;;;10.80;74.10;;;;;;5094257;28;20552;-74
2022/04/08 10:05:22;;;;;;;25.30;23.80;;;10.70;74.10;;;;;;5094634;28;20449;-74
2022/04/08 10:07:52;;;;;;;25.10;23.80;;;10.80;74.20;;;;;;5094405;28;20492;-74
2022/04/08 10:10:24;;;;;;;25.53;24.23;;;10.70;74.60;;;;;;5094253;28;20466;-74
2022/04/08 10:13:08;;;;;;;25.73;24.13;;;10.60;74.40;;;;;;5095615;28;20926;-74
2022/04/08 10:15:38;;;;;;;24.57;23.30;;;10.20;76.30;;;;;;5096160;28;20453;-74
2022/04/08 10:18:06;;;;;;;24.90;23.60;;;10.20;76.30;;;;;;5095185;28;20477;-74
2022/04/08 10:20:36;;;;;;;24.37;23.07;;;9.80;76.90;;;;;;5093794;28;20457;-74
2022/04/08 10:23:08;;;;;;;24.20;22.90;;;9.70;78.10;;;;;;5094207;28;20527;-74
2022/04/08 10:25:40;;;;;;;25.33;24.00;;;9.50;77.30;;;;;;5094088;28;20981;-74
2022/04/08 10:28:11;;;;;;;24.33;23.03;;;9.70;78.30;;;;;;5094110;28;20442;-74
2022/04/08 10:30:45;;;;;;;26.90;25.30;;;9.80;77.60;;;;;;5093595;28;20495;-74
2022/04/08 10:33:13;;;;;;;26.00;24.60;;;9.90;77.60;;;;;;5093693;28;20473;-74
2022/04/08 10:35:51;;;;;;;25.00;23.60;;;10.00;77.10;;;;;;5093996;28;20476;-74
2022/04/08 10:38:18;;;;;;;25.10;23.70;;;9.90;77.60;;;;;;5093677;28;20588;-74
2022/04/08 10:40:54;;;;;;;23.90;22.60;;;9.80;76.30;;;;;;5092752;28;20456;-74
2022/04/08 10:43:23;;;;;;;26.33;24.93;;;9.90;77.00;;;;;;5093680;28;20477;-74
2022/04/08 10:45:56;;;;;;;23.90;22.60;;;10.00;76.50;;;;;;5093605;28;20815;-74
2022/04/08 10:48:23;;;;;;;24.37;23.07;;;10.10;75.60;;;;;;5093683;28;20934;-74
2022/04/08 10:50:51;;;;;;;25.53;24.23;;;10.00;75.90;;;;;;5093051;28;20468;-74
2022/04/08 10:53:22;;;;;;;25.43;24.13;;;10.10;75.40;;;;;;5093440;28;20465;-74
2022/04/08 10:55:51;;;;;;;26.50;24.90;;;9.90;76.60;;;;;;5093508;28;20449;-74
2022/04/08 10:58:32;;;;;;;25.27;23.97;;;9.90;78.90;;;;;;5093230;28;20519;-74
2022/04/08 11:01:00;;;;;;;25.77;24.47;;;10.00;79.90;;;;;;5093030;28;20510;-74
2022/04/08 11:03:28;;;;;;;26.63;25.03;;;10.20;78.60;;;;;;5093192;28;21097;-74
2022/04/08 11:05:55;;;;;;;25.70;24.30;;;10.20;76.80;;;;;;5093449;28;20476;-74
2022/04/08 11:08:25;;;;;;;25.30;23.87;;;10.20;76.70;;;;;;5092687;28;20556;-74
2022/04/08 11:10:58;;;;;;;26.10;24.67;;;10.00;77.70;;;;;;5092803;28;20450;-73
2022/04/08 11:13:26;;;;;;;25.10;23.70;;;9.80;77.50;;;;;;5093044;28;20553;-73
2022/04/08 11:15:54;;;;;;;26.17;24.77;;;9.60;78.40;;;;;;5093031;28;20511;-73
2022/04/08 11:18:25;;;;;;;26.17;24.77;;;9.50;80.30;;;;;;5093027;28;20561;-73
2022/04/08 11:20:52;;;;;;;26.50;24.90;;;9.50;80.40;;;;;;5092474;28;20453;-73
2022/04/08 11:23:26;;;;;;;25.80;24.40;;;9.40;80.80;;;;;;5092857;28;20311;-73
2022/04/08 11:25:54;;;;;;;25.03;23.40;;;9.50;80.90;;;;;;5092929;28;20531;-73
2022/04/08 11:28:23;;;;;;;24.65;23.35;;;9.40;80.40;;;;;;5093051;28;20491;-73
2022/04/08 11:30:57;;;;;;;26.10;24.60;;;9.50;80.30;;;;;;5092447;28;20196;-73
2022/04/08 11:33:25;;;;;;;26.27;24.60;;;9.40;81.00;;;;;;5092752;28;20306;-73
2022/04/08 11:35:57;;;;;;;25.23;23.73;;;9.30;81.20;;;;;;5092934;28;20608;-73
2022/04/08 11:38:25;;;;;;;26.05;24.38;;;9.40;81.40;;;;;;5092705;28;20224;-73
2022/04/08 11:40:52;;;;;;;25.10;23.70;;;9.50;80.90;;;;;;5092289;28;20202;-73
2022/04/08 11:43:21;;;;;;;25.70;24.20;;;9.70;79.40;;;;;;5092707;28;20531;-73
2022/04/08 11:45:49;;;;;;;24.88;23.58;;;9.50;80.50;;;;;;5092703;28;20245;-73
2022/04/08 11:48:20;;;;;;;25.05;23.75;;;9.50;80.40;;;;;;5092474;28;20205;-73
2022/04/08 11:50:47;;;;;;;25.75;24.35;;;9.40;81.30;;;;;;5092016;28;20202;-73
2022/04/08 11:53:15;;;;;;;26.85;25.65;;;9.30;81.80;;;;;;5092432;28;20216;-73
2022/04/08 11:55:52;;;;;;;25.30;23.83;;;9.20;83.20;;;;;;5092435;28;20203;-73
2022/04/08 11:58:19;;;;;;;26.10;24.70;;;9.20;83.50;;;;;;5092286;28;20282;-73
2022/04/08 12:00:48;;;;;;;26.70;25.10;;;9.30;84.20;;;;;;5092040;28;20801;-73
2022/04/08 12:03:21;;;;;;;26.77;25.17;;;9.40;83.40;;;;;;5092605;28;20224;-73
2022/04/08 12:05:48;;;;;;;26.20;24.80;;;9.50;82.50;;;;;;5092569;28;20195;-73
2022/04/08 12:08:17;;;;;;;25.50;24.10;;;9.70;81.60;;;;;;5091883;28;20471;-73
2022/04/08 12:10:45;;;;;;;25.77;24.48;;;9.80;80.30;;;;;;5092096;28;20453;-73
2022/04/08 12:13:16;;;;;;;26.35;24.95;;;9.80;79.90;;;;;;5092128;28;20215;-73
2022/04/08 12:15:44;;;;;;;25.95;24.65;;;9.60;81.20;;;;;;5092371;28;20199;-73
2022/04/08 12:18:12;;;;;;;26.20;24.80;;;9.50;81.80;;;;;;5092304;28;20312;-73
2022/04/08 12:20:43;;;;;;;26.40;25.00;;;9.50;82.00;;;;;;5083733;28;20200;-73
2022/04/08 12:23:11;;;;;;;26.38;24.95;;;9.60;82.20;;;;;;5073014;28;20227;-73
2022/04/08 12:25:38;;;;;;;25.27;23.98;;;9.50;82.50;;;;;;5072070;28;20200;-73
2022/04/08 12:28:11;;;;;;;24.67;23.25;;;9.50;82.60;;;;;;5072019;28;20206;-73
2022/04/08 12:30:39;;;;;;;24.38;23.08;;;9.50;83.30;;;;;;5071739;28;20197;-73
2022/04/08 12:33:06;;;;;;;26.67;25.23;;;9.20;83.00;;;;;;5089147;28;20292;-73
2022/04/08 12:35:33;;;;;;;26.52;25.13;;;9.00;84.50;;;;;;5092406;28;20196;-73